Terminal Aerodrome Forecast
Issued by NWS

Current Version | Previous Version | Text Only | Print | Product List | Glossary Off
Versions: 1 2 3 4 5 6 7 8 9 10 11 12 13 14 15 16 17 18 19 20 21 22 23 24 25 26 27 28 29

928
FTUS41 KRLX 300819 AAB
TAFCKB
TAF AMD
KCKB 300819Z 3008/3106 00000KT 1SM BR SCT001
     FM300900 00000KT 1/4SM FG VV001
     FM301300 00000KT 1SM BR BKN001
     FM301400 VRB04KT P6SM SKC
     FM310000 00000KT P6SM SKC=

USA.gov is the U.S. government's official web portal to all federal, state and local government web resources and services.